createdAt,value
2023-03-03T00:01:55.846Z,4.8
2023-03-03T00:08:15.566Z,4.8
2023-03-03T00:14:38.601Z,3.4
2023-03-03T00:20:58.521Z,3.4
2023-03-03T00:27:21.538Z,4
2023-03-03T00:33:41.497Z,4
2023-03-03T00:40:04.590Z,4.3
2023-03-03T00:46:24.564Z,4.3
2023-03-03T00:52:47.620Z,4.2
2023-03-03T00:59:07.529Z,4.2
2023-03-03T01:05:30.655Z,3.5
2023-03-03T01:11:50.513Z,3.5
2023-03-03T01:18:13.574Z,3.1
2023-03-03T01:24:33.574Z,3.1
2023-03-03T01:30:56.565Z,3.9
2023-03-03T01:37:16.730Z,3.9
2023-03-03T01:43:39.613Z,4.8
2023-03-03T01:49:59.537Z,4.8
2023-03-03T01:56:22.571Z,3
2023-03-03T02:02:42.511Z,3
2023-03-03T02:09:05.589Z,2.6
2023-03-03T02:15:25.533Z,2.6
2023-03-03T02:21:48.570Z,3.1
2023-03-03T02:28:08.560Z,3.1
2023-03-03T02:34:31.619Z,2.6
2023-03-03T02:40:51.634Z,2.6
2023-03-03T02:47:14.566Z,3.8
2023-03-03T02:53:34.776Z,3.8
2023-03-03T02:59:57.563Z,2.4
2023-03-03T03:06:17.532Z,2.4
2023-03-03T03:12:40.556Z,2.6
2023-03-03T03:19:00.500Z,2.6
2023-03-03T03:25:23.495Z,3.5
2023-03-03T03:31:43.567Z,3.5
2023-03-03T03:38:06.575Z,1.9
2023-03-03T03:44:26.532Z,1.9
2023-03-03T03:50:49.553Z,4
2023-03-03T03:57:09.557Z,4
2023-03-03T04:03:32.631Z,5.5
2023-03-03T04:09:52.627Z,5.5
2023-03-03T04:26:38.195Z,4.1
2023-03-03T04:32:58.505Z,4.1
2023-03-03T04:39:21.523Z,10.5
2023-03-03T04:45:41.556Z,10.5
2023-03-03T04:52:04.577Z,10.5
2023-03-03T04:58:24.586Z,10.5
2023-03-03T05:04:47.646Z,6.6
2023-03-03T05:11:07.569Z,6.6
2023-03-03T05:17:30.668Z,6.5
2023-03-03T05:23:50.587Z,6.5
2023-03-03T05:30:13.572Z,9.3
2023-03-03T05:36:33.661Z,9.3
2023-03-03T05:42:56.642Z,11.1
2023-03-03T05:49:16.490Z,11.1
2023-03-03T05:55:39.551Z,5.2
2023-03-03T06:01:59.609Z,5.2
2023-03-03T06:08:22.608Z,8.5
2023-03-03T06:14:42.583Z,8.5
2023-03-03T06:21:05.666Z,11.5
2023-03-03T06:27:25.623Z,11.5
2023-03-03T06:33:48.580Z,21.6
2023-03-03T06:40:08.617Z,21.6
2023-03-03T06:46:31.594Z,11
2023-03-03T06:52:51.658Z,11
2023-03-03T06:59:14.575Z,9.7
2023-03-03T07:05:34.552Z,9.7
2023-03-03T07:11:57.500Z,13.4
2023-03-03T07:18:17.588Z,13.4
2023-03-03T07:24:40.517Z,11.2
2023-03-03T07:31:00.764Z,11.2
2023-03-03T07:37:23.575Z,12.5
2023-03-03T07:43:43.518Z,12.5
2023-03-03T07:50:06.600Z,10.7
2023-03-03T07:56:26.672Z,10.7
2023-03-03T08:02:49.564Z,7
2023-03-03T08:09:09.654Z,7
2023-03-03T08:15:32.676Z,8.2
2023-03-03T08:21:52.525Z,8.2
2023-03-03T08:28:15.550Z,9.3
2023-03-03T08:34:35.580Z,9.3
2023-03-03T08:40:58.606Z,7.7
2023-03-03T08:47:18.570Z,7.7
2023-03-03T08:53:41.747Z,8.6
2023-03-03T09:00:01.631Z,8.6
2023-03-03T09:06:24.674Z,11.1
2023-03-03T09:12:44.682Z,11.1
2023-03-03T09:35:15.436Z,21.9
2023-03-03T09:41:35.501Z,21.9
2023-03-03T09:47:58.519Z,17.4
2023-03-03T09:54:18.588Z,17.4
2023-03-03T10:00:41.564Z,8.6
2023-03-03T10:07:01.700Z,8.6
2023-03-03T10:13:24.562Z,9.8
2023-03-03T10:19:44.594Z,9.8
2023-03-03T10:26:07.660Z,10.4
2023-03-03T10:32:27.800Z,10.4
2023-03-03T10:38:50.661Z,7.6
2023-03-03T10:45:10.543Z,7.6
2023-03-03T10:51:33.584Z,8.7
2023-03-03T10:57:53.643Z,8.7
2023-03-03T11:04:16.634Z,9.1
2023-03-03T11:10:36.751Z,9.1
2023-03-03T11:16:59.849Z,6
2023-03-03T11:23:19.789Z,6
2023-03-03T11:29:42.680Z,9.8
2023-03-03T11:36:02.773Z,9.8
2023-03-03T11:42:25.652Z,7.8
2023-03-03T11:48:45.734Z,7.8
2023-03-03T11:55:08.570Z,8.3
2023-03-03T12:01:28.956Z,8.3
2023-03-03T12:07:52.060Z,6.6
2023-03-03T12:14:11.860Z,6.6
2023-03-03T12:20:34.654Z,7.3
2023-03-03T12:26:55.024Z,7.3
2023-03-03T12:33:17.937Z,8.6
2023-03-03T12:39:37.917Z,8.6
2023-03-03T12:46:00.975Z,6.8
2023-03-03T12:52:21.034Z,6.8
2023-03-03T12:58:43.931Z,9.2
2023-03-03T13:05:04.052Z,9.2
2023-03-03T13:11:26.888Z,8.4
2023-03-03T13:17:49.245Z,8.4
2023-03-03T13:24:09.967Z,7.8
2023-03-03T13:30:29.912Z,7.8
2023-03-03T13:36:52.929Z,11.4
2023-03-03T13:43:13.002Z,11.4
2023-03-03T13:49:35.928Z,12.9
2023-03-03T13:55:55.961Z,12.9
2023-03-03T14:02:19.029Z,9.9
2023-03-03T14:08:38.923Z,9.9
2023-03-03T14:15:01.904Z,15.3
2023-03-03T14:21:21.947Z,15.3
2023-03-03T14:27:45.005Z,11.6
2023-03-03T14:43:34.676Z,14.9
2023-03-03T14:49:54.909Z,14.9
2023-03-03T14:56:17.894Z,21.8
2023-03-03T15:02:37.999Z,21.8
2023-03-03T15:09:00.911Z,21.8
2023-03-03T15:15:21.049Z,21.8
2023-03-03T15:21:45.102Z,13.6
2023-03-03T15:28:06.023Z,13.6
2023-03-03T15:34:29.412Z,12.7
2023-03-03T15:40:49.929Z,12.7
2023-03-03T15:47:13.090Z,16.8
2023-03-03T15:53:33.978Z,16.8
2023-03-03T15:59:57.316Z,17.5
2023-03-03T16:06:17.901Z,17.5
2023-03-03T16:12:40.760Z,12.1
2023-03-03T16:19:00.800Z,12.1
2023-03-03T16:25:23.628Z,13.7
2023-03-03T16:31:43.703Z,13.7
2023-03-03T16:38:06.636Z,14.8
2023-03-03T16:44:26.536Z,14.8
2023-03-03T16:50:49.537Z,17.2
2023-03-03T16:57:09.531Z,17.2
2023-03-03T17:03:32.528Z,15.9
2023-03-03T17:09:52.613Z,15.9
2023-03-03T17:16:15.710Z,9.9
2023-03-03T17:22:35.540Z,9.9
2023-03-03T17:28:58.498Z,20.6
2023-03-03T17:35:18.585Z,20.6
2023-03-03T17:41:41.509Z,15.2
2023-03-03T17:48:01.600Z,15.2
2023-03-03T17:54:24.703Z,13.7
2023-03-03T18:00:44.712Z,13.7
2023-03-03T18:07:07.507Z,12.6
2023-03-03T18:13:27.647Z,12.6
2023-03-03T18:19:50.540Z,16.4
2023-03-03T18:26:10.511Z,16.4
2023-03-03T18:32:33.990Z,16.6
2023-03-03T18:38:53.577Z,16.6
2023-03-03T18:45:16.555Z,26.3
2023-03-03T18:51:36.702Z,26.3
2023-03-03T18:57:59.524Z,16.1
2023-03-03T19:04:19.564Z,16.1
2023-03-03T19:10:42.509Z,16.3
2023-03-03T19:17:02.650Z,16.3
2023-03-03T19:23:25.606Z,22.6
2023-03-03T19:29:45.667Z,22.6
2023-03-03T19:46:49.144Z,19.8
2023-03-03T19:53:08.504Z,19.8
2023-03-03T19:59:31.491Z,41.9
2023-03-03T20:05:51.543Z,41.9
2023-03-03T20:12:14.554Z,41.9
2023-03-03T20:18:34.837Z,41.9
2023-03-03T20:24:57.579Z,13.9
2023-03-03T20:31:17.722Z,13.9
2023-03-03T20:37:40.617Z,15.7
2023-03-03T20:44:00.626Z,15.7
2023-03-03T20:50:23.623Z,15.9
2023-03-03T20:56:43.843Z,15.9
2023-03-03T21:03:06.679Z,12.3
2023-03-03T21:09:27.040Z,12.3
2023-03-03T21:15:49.645Z,14.6
2023-03-03T21:22:09.766Z,14.6
2023-03-03T21:28:32.546Z,11.8
2023-03-03T21:34:52.582Z,11.8
2023-03-03T21:41:15.582Z,9.8
2023-03-03T21:47:35.609Z,9.8
2023-03-03T21:53:58.574Z,15
2023-03-03T22:00:18.565Z,15
2023-03-03T22:06:41.527Z,13.7
2023-03-03T22:13:01.746Z,13.7
2023-03-03T22:19:24.585Z,16.6
2023-03-03T22:25:44.491Z,16.6
2023-03-03T22:32:07.735Z,20.2
2023-03-03T22:38:27.654Z,20.2
2023-03-03T22:44:50.549Z,20.1
2023-03-03T22:51:10.663Z,20.1
2023-03-03T22:57:33.533Z,17.9
2023-03-03T23:21:47.543Z,43
2023-03-03T23:28:07.480Z,43
2023-03-03T23:34:30.522Z,43
2023-03-03T23:40:50.540Z,43
2023-03-03T23:47:13.519Z,17
2023-03-03T23:53:33.540Z,17
2023-03-03T23:59:56.675Z,13.2
